createdAt,value
2019-05-19T00:01:04.701Z,93793.22
2019-05-19T00:03:33.372Z,93798.31
2019-05-19T00:06:02.051Z,93796.95
2019-05-19T00:08:30.761Z,93786.80
2019-05-19T00:10:59.421Z,93792.38
2019-05-19T00:13:28.105Z,93795.39
2019-05-19T00:15:56.786Z,93790.53
2019-05-19T00:18:25.482Z,93795.73
2019-05-19T00:20:54.142Z,93794.64
2019-05-19T00:23:22.823Z,93797.83
2019-05-19T00:25:51.495Z,93793.32
2019-05-19T00:28:20.175Z,93799.55
2019-05-19T00:30:48.858Z,93796.63
2019-05-19T00:33:17.535Z,93800.52
2019-05-19T00:35:46.193Z,93803.34
2019-05-19T00:38:14.858Z,93785.37
2019-05-19T00:40:43.534Z,93794.64
2019-05-19T00:43:12.378Z,93793.73
2019-05-19T00:45:41.180Z,93791.01
2019-05-19T00:48:09.879Z,93793.94
2019-05-19T00:50:38.550Z,93796.94
2019-05-19T00:53:07.325Z,93793.34
2019-05-19T00:55:36.435Z,93807.66
2019-05-19T00:58:05.698Z,93799.88
2019-05-19T01:00:34.473Z,93802.92
2019-05-19T01:03:03.146Z,93798.52
2019-05-19T01:05:31.886Z,93795.39
2019-05-19T01:08:00.558Z,93805.94
2019-05-19T01:10:29.235Z,93798.47
2019-05-19T01:12:57.905Z,93791.72
2019-05-19T01:15:26.586Z,93811.20
2019-05-19T01:17:55.265Z,93805.74
2019-05-19T01:20:24.544Z,93802.81
2019-05-19T01:22:53.204Z,93796.48
2019-05-19T01:25:21.883Z,93796.68
2019-05-19T01:27:50.580Z,93794.36
2019-05-19T01:30:20.941Z,93794.25
2019-05-19T01:32:49.608Z,93796.47
2019-05-19T01:35:18.269Z,93791.11
2019-05-19T01:37:46.979Z,93791.30
2019-05-19T01:40:15.757Z,93772.88
2019-05-19T01:42:44.430Z,93777.31
2019-05-19T01:45:13.509Z,93788.78
2019-05-19T01:47:42.219Z,93785.21
2019-05-19T01:50:18.940Z,93784.88
2019-05-19T01:52:41.774Z,93785.71
2019-05-19T01:55:10.737Z,93782.91
2019-05-19T01:57:39.416Z,93787.72
2019-05-19T02:00:09.398Z,93785.52
2019-05-19T02:02:38.092Z,93781.62
2019-05-19T02:05:07.362Z,93776.78
2019-05-19T02:07:36.230Z,93777.73
2019-05-19T02:10:07.822Z,93773.10
2019-05-19T02:12:36.485Z,93772.57
2019-05-19T02:15:06.944Z,93784.13
2019-05-19T02:17:35.617Z,93784.73
2019-05-19T02:20:06.306Z,93787.39
2019-05-19T02:22:35.032Z,93790.43
2019-05-19T02:25:03.902Z,93785.79
2019-05-19T02:27:32.569Z,93791.68
2019-05-19T02:30:01.330Z,93793.45
2019-05-19T02:32:30.079Z,93795.86
2019-05-19T02:34:58.744Z,93788.83
2019-05-19T02:37:27.416Z,93794.29
2019-05-19T02:39:56.089Z,93790.61
2019-05-19T02:42:27.688Z,93794.60
2019-05-19T02:45:02.185Z,93782.16
2019-05-19T02:47:31.709Z,93804.33
2019-05-19T02:50:02.656Z,93807.28
2019-05-19T02:52:32.551Z,93802.11
2019-05-19T02:55:03.013Z,93795.28
2019-05-19T02:57:33.593Z,93789.91
2019-05-19T03:00:03.406Z,93804.89
2019-05-19T03:02:32.076Z,93800.88
2019-05-19T03:05:00.811Z,93809.08
2019-05-19T03:07:29.468Z,93809.89
2019-05-19T03:09:59.168Z,93809.28
2019-05-19T03:12:27.875Z,93811.37
2019-05-19T03:14:56.553Z,93810.65
2019-05-19T03:17:25.260Z,93822.44
2019-05-19T03:19:53.921Z,93819.56
2019-05-19T03:22:22.678Z,93825.05
2019-05-19T03:24:51.329Z,93820.97
2019-05-19T03:27:19.998Z,93824.50
2019-05-19T03:29:52.991Z,93831.17
2019-05-19T03:32:38.244Z,93827.92
2019-05-19T03:35:06.921Z,93835.63
2019-05-19T03:37:35.588Z,93826.52
2019-05-19T03:40:07.150Z,93827.59
2019-05-19T03:42:35.838Z,93831.81
2019-05-19T03:45:04.818Z,93830.08
2019-05-19T03:47:33.483Z,93827.12
2019-05-19T03:50:02.173Z,93832.50
2019-05-19T03:52:30.869Z,93834.70
2019-05-19T03:54:59.561Z,93834.08
2019-05-19T03:57:28.215Z,93836.36
2019-05-19T03:59:56.908Z,93836.73
2019-05-19T04:02:25.587Z,93836.53
2019-05-19T04:04:54.273Z,93840.70
2019-05-19T04:07:22.955Z,93842.86
2019-05-19T04:09:57.653Z,93836.38
2019-05-19T04:12:27.369Z,93841.59
2019-05-19T04:14:56.051Z,93839.67
2019-05-19T04:17:26.017Z,93835.84
2019-05-19T04:19:57.773Z,93842.11
2019-05-19T04:22:26.449Z,93846.99
2019-05-19T04:24:55.141Z,93841.77
2019-05-19T04:27:23.842Z,93845.23
2019-05-19T04:29:52.620Z,93846.51
2019-05-19T04:32:21.320Z,93854.80
2019-05-19T04:34:52.101Z,93854.41
2019-05-19T04:37:23.935Z,93862.25
2019-05-19T04:39:53.841Z,93844.05
2019-05-19T04:42:22.508Z,93849.17
2019-05-19T04:44:51.180Z,93839.97
2019-05-19T04:47:19.837Z,93811.17
2019-05-19T04:49:48.509Z,93837.39
2019-05-19T04:52:17.174Z,93843.41
2019-05-19T04:54:45.868Z,93847.73
2019-05-19T04:57:14.532Z,93851.21
2019-05-19T04:59:45.740Z,93853.58
2019-05-19T05:02:19.619Z,93856.84
2019-05-19T05:04:49.954Z,93849.97
2019-05-19T05:07:18.646Z,93842.45
2019-05-19T05:09:48.460Z,93847.22
2019-05-19T05:12:17.152Z,93849.20
2019-05-19T05:14:46.231Z,93849.77
2019-05-19T05:17:14.934Z,93848.02
2019-05-19T05:19:43.597Z,93842.75
2019-05-19T05:22:21.781Z,93842.34
2019-05-19T05:24:42.928Z,93847.75
2019-05-19T05:27:13.603Z,93846.72
2019-05-19T05:29:43.567Z,93847.11
2019-05-19T05:32:12.289Z,93843.03
2019-05-19T05:34:41.012Z,93838.84
2019-05-19T05:37:09.694Z,93842.14
2019-05-19T05:39:38.414Z,93840.39
2019-05-19T05:42:07.086Z,93835.98
2019-05-19T05:44:35.765Z,93838.28
2019-05-19T05:47:04.421Z,93836.16
2019-05-19T05:49:33.109Z,93839.38
2019-05-19T05:52:03.282Z,93837.56
2019-05-19T05:54:33.127Z,93836.91
2019-05-19T05:57:04.493Z,93836.48
2019-05-19T05:59:33.012Z,93839.02
2019-05-19T06:02:01.702Z,93834.34
2019-05-19T06:04:30.375Z,93833.85
2019-05-19T06:06:59.044Z,93833.80
2019-05-19T06:09:29.054Z,93837.09
2019-05-19T06:11:58.279Z,93839.67
2019-05-19T06:14:27.452Z,93836.05
2019-05-19T06:16:56.188Z,93838.25
2019-05-19T06:19:26.202Z,93842.05
2019-05-19T06:21:58.449Z,93839.22
2019-05-19T06:24:35.027Z,93836.66
2019-05-19T06:27:07.932Z,93842.20
2019-05-19T06:29:45.603Z,93842.61
2019-05-19T06:32:36.489Z,93830.30
2019-05-19T06:38:31.521Z,93833.09
2019-05-19T06:41:03.771Z,93831.91
2019-05-19T06:43:35.629Z,93831.05
2019-05-19T06:46:04.292Z,93823.23
2019-05-19T06:48:32.988Z,93822.72
2019-05-19T06:51:01.934Z,93824.03
2019-05-19T06:53:32.127Z,93830.10
2019-05-19T06:56:01.191Z,93820.09
2019-05-19T06:58:29.865Z,93822.64
2019-05-19T07:01:00.660Z,93829.02
2019-05-19T07:03:30.344Z,93821.48
2019-05-19T07:05:59.088Z,93828.37
2019-05-19T07:08:30.506Z,93819.37
2019-05-19T07:11:05.259Z,93815.06
2019-05-19T07:13:37.902Z,93813.95
2019-05-19T07:16:06.689Z,93816.04
2019-05-19T07:18:38.376Z,93815.64
2019-05-19T07:21:07.089Z,93810.93
2019-05-19T07:23:37.329Z,93811.84
2019-05-19T07:26:05.978Z,93808.91
2019-05-19T07:28:34.663Z,93810.28
2019-05-19T07:31:05.588Z,93818.94
2019-05-19T07:33:34.253Z,93808.33
2019-05-19T07:36:02.913Z,93813.72
2019-05-19T07:38:31.638Z,93811.84
2019-05-19T07:41:00.363Z,93803.47
2019-05-19T07:43:29.032Z,93808.52
2019-05-19T07:45:57.707Z,93800.85
2019-05-19T07:48:26.380Z,93804.06
2019-05-19T07:50:55.054Z,93803.47
2019-05-19T07:53:24.562Z,93812.67
2019-05-19T07:55:53.255Z,93804.52
2019-05-19T07:58:22.098Z,93806.91
2019-05-19T08:00:55.748Z,93804.84
2019-05-19T08:03:24.430Z,93803.69
2019-05-19T08:05:57.132Z,93799.88
2019-05-19T08:08:25.950Z,93805.53
2019-05-19T08:10:54.644Z,93803.19
2019-05-19T08:13:23.316Z,93797.92
2019-05-19T08:15:52.004Z,93793.68
2019-05-19T08:18:20.706Z,93792.28
2019-05-19T08:20:49.370Z,93784.80
2019-05-19T08:23:18.062Z,93789.45
2019-05-19T08:25:46.744Z,93788.90
2019-05-19T08:28:15.434Z,93788.97
2019-05-19T08:30:44.119Z,93792.86
2019-05-19T08:33:12.868Z,93787.83
2019-05-19T08:35:41.579Z,93786.59
2019-05-19T08:38:10.265Z,93777.51
2019-05-19T08:40:38.933Z,93768.36
2019-05-19T08:43:09.215Z,93771.10
2019-05-19T08:45:37.936Z,93769.35
2019-05-19T08:48:06.610Z,93775.38
2019-05-19T08:50:35.306Z,93770.03
2019-05-19T08:53:04.121Z,93765.25
2019-05-19T08:55:32.873Z,93766.67
2019-05-19T08:58:01.630Z,93771.41
2019-05-19T09:00:30.378Z,93773.56
2019-05-19T09:02:59.097Z,93772.92
2019-05-19T09:05:27.760Z,93768.50
2019-05-19T09:07:56.416Z,93771.03
2019-05-19T09:10:25.095Z,93765.34
2019-05-19T09:12:53.775Z,93760.22
2019-05-19T09:15:22.455Z,93757.59
2019-05-19T09:17:54.092Z,93756.16
2019-05-19T09:20:21.544Z,93756.37
2019-05-19T09:22:50.205Z,93745.69
2019-05-19T09:25:18.878Z,93731.41
2019-05-19T09:27:47.578Z,93728.48
2019-05-19T09:30:16.635Z,93732.50
2019-05-19T09:32:45.323Z,93728.25
2019-05-19T09:35:15.236Z,93728.27
2019-05-19T09:37:43.886Z,93722.74
2019-05-19T09:40:13.777Z,93721.80
2019-05-19T09:42:42.458Z,93722.16
2019-05-19T09:45:13.058Z,93721.26
2019-05-19T09:47:42.253Z,93720.44
2019-05-19T09:50:11.310Z,93714.25
2019-05-19T09:52:39.996Z,93716.92
2019-05-19T09:55:09.686Z,93707.58
2019-05-19T09:57:38.358Z,93701.05
2019-05-19T10:00:08.834Z,93694.72
2019-05-19T10:02:37.512Z,93700.86
2019-05-19T10:05:07.770Z,93702.02
2019-05-19T10:07:36.433Z,93691.77
2019-05-19T10:10:16.194Z,93682.54
2019-05-19T10:12:44.883Z,93679.89
2019-05-19T10:15:14.378Z,93670.81
2019-05-19T10:17:43.073Z,93668.55
2019-05-19T10:20:12.843Z,93666.57
2019-05-19T10:22:41.465Z,93664.09
2019-05-19T10:25:21.802Z,93661.77
2019-05-19T10:27:41.139Z,93657.36
2019-05-19T10:30:10.715Z,93659.15
2019-05-19T10:32:39.391Z,93650.69
2019-05-19T10:35:08.583Z,93657.20
2019-05-19T10:37:37.288Z,93653.94
2019-05-19T10:40:07.114Z,93654.25
2019-05-19T10:42:36.010Z,93657.47
2019-05-19T10:45:10.142Z,93628.59
2019-05-19T10:47:38.798Z,93639.02
2019-05-19T10:50:08.112Z,93641.31
2019-05-19T10:52:36.793Z,93640.89
2019-05-19T10:55:07.465Z,93639.66
2019-05-19T10:57:36.137Z,93635.95
2019-05-19T11:00:06.513Z,93640.90
2019-05-19T11:02:35.189Z,93630.88
2019-05-19T11:05:04.974Z,93621.80
2019-05-19T11:07:33.658Z,93620.04
2019-05-19T11:10:02.338Z,93623.80
2019-05-19T11:12:31.020Z,93622.30
2019-05-19T11:14:59.699Z,93622.19
2019-05-19T11:17:28.383Z,93609.41
2019-05-19T11:19:57.072Z,93611.53
2019-05-19T11:22:25.738Z,93609.66
2019-05-19T11:24:54.404Z,93607.27
2019-05-19T11:27:23.086Z,93596.88
2019-05-19T11:29:51.778Z,93608.30
2019-05-19T11:32:20.476Z,93603.55
2019-05-19T11:34:49.200Z,93606.98
2019-05-19T11:37:17.885Z,93597.07
2019-05-19T11:39:46.560Z,93587.07
2019-05-19T11:42:15.227Z,93582.08
2019-05-19T11:44:43.913Z,93597.23
2019-05-19T11:47:12.624Z,93599.05
2019-05-19T11:49:41.363Z,93581.33
2019-05-19T11:52:10.019Z,93583.34
2019-05-19T11:54:38.797Z,93585.55
2019-05-19T11:57:07.498Z,93593.11
2019-05-19T11:59:36.174Z,93581.36
2019-05-19T12:02:04.966Z,93591.97
2019-05-19T12:04:33.683Z,93586.50
2019-05-19T12:07:02.362Z,93589.55
2019-05-19T12:09:31.047Z,93588.37
2019-05-19T12:11:59.821Z,93579.92
2019-05-19T12:14:31.472Z,93593.36
2019-05-19T12:17:01.492Z,93583.22
2019-05-19T12:19:30.256Z,93573.42
2019-05-19T12:21:58.981Z,93577.44
2019-05-19T12:24:27.686Z,93573.38
2019-05-19T12:26:56.378Z,93579.02
2019-05-19T12:29:25.089Z,93569.44
2019-05-19T12:31:53.776Z,93572.02
2019-05-19T12:34:22.495Z,93571.34
2019-05-19T12:36:51.215Z,93555.02
2019-05-19T12:39:19.925Z,93540.44
2019-05-19T12:41:48.690Z,93550.07
2019-05-19T12:44:17.399Z,93553.53
2019-05-19T12:46:46.069Z,93562.72
2019-05-19T12:49:17.510Z,93556.14
2019-05-19T12:51:46.181Z,93553.82
2019-05-19T12:54:14.909Z,93546.11
2019-05-19T12:56:43.573Z,93556.73
2019-05-19T12:59:13.165Z,93555.17
2019-05-19T13:01:41.848Z,93551.66
2019-05-19T13:04:10.540Z,93548.89
2019-05-19T13:06:39.270Z,93528.31
2019-05-19T13:09:08.351Z,93539.67
2019-05-19T13:11:37.047Z,93550.09
2019-05-19T13:14:05.712Z,93546.73
2019-05-19T13:16:34.401Z,93548.00
2019-05-19T13:19:04.736Z,93551.27
2019-05-19T13:21:33.756Z,93554.18
2019-05-19T13:24:02.449Z,93546.43
2019-05-19T13:26:31.153Z,93523.32
2019-05-19T13:28:59.822Z,93552.74
2019-05-19T13:31:28.512Z,93553.21
2019-05-19T13:33:57.198Z,93552.70
2019-05-19T13:36:25.920Z,93548.45
2019-05-19T13:38:54.572Z,93545.13
2019-05-19T13:41:24.792Z,93542.89
2019-05-19T13:43:53.468Z,93546.97
2019-05-19T13:46:22.136Z,93544.09
2019-05-19T13:48:50.806Z,93541.61
2019-05-19T13:51:19.512Z,93547.76
2019-05-19T13:53:48.181Z,93547.30
2019-05-19T13:56:16.886Z,93543.61
2019-05-19T13:58:45.539Z,93546.94
2019-05-19T14:01:27.669Z,93542.63
2019-05-19T14:03:44.672Z,93543.17
2019-05-19T14:06:13.344Z,93544.08
2019-05-19T14:08:42.015Z,93540.53
2019-05-19T14:11:10.703Z,93545.23
2019-05-19T14:13:39.465Z,93537.64
2019-05-19T14:16:08.143Z,93532.41
2019-05-19T14:18:36.898Z,93541.78
2019-05-19T14:21:05.595Z,93546.70
2019-05-19T14:23:34.351Z,93536.86
2019-05-19T14:26:03.048Z,93538.22
2019-05-19T14:28:31.738Z,93542.70
2019-05-19T14:31:00.529Z,93540.77
2019-05-19T14:33:29.196Z,93539.69
2019-05-19T14:35:57.896Z,93546.22
2019-05-19T14:38:26.580Z,93543.32
2019-05-19T14:40:55.271Z,93539.30
2019-05-19T14:43:25.526Z,93539.61
2019-05-19T14:45:54.222Z,93534.02
2019-05-19T14:48:22.921Z,93537.54
2019-05-19T14:50:51.588Z,93525.84
2019-05-19T14:53:20.268Z,93523.31
2019-05-19T14:55:48.949Z,93525.13
2019-05-19T14:58:17.627Z,93517.73
2019-05-19T15:00:47.821Z,93521.03
2019-05-19T15:03:16.508Z,93522.42
2019-05-19T15:05:46.466Z,93520.13
2019-05-19T15:08:15.161Z,93519.39
2019-05-19T15:10:43.825Z,93520.54
2019-05-19T15:13:13.714Z,93518.31
2019-05-19T15:15:42.379Z,93523.83
2019-05-19T15:18:12.527Z,93522.42
2019-05-19T15:20:41.226Z,93513.89
2019-05-19T15:23:09.891Z,93504.44
2019-05-19T15:25:38.620Z,93499.59
2019-05-19T15:28:07.300Z,93505.70
2019-05-19T15:30:36.035Z,93500.53
2019-05-19T15:33:04.689Z,93493.81
2019-05-19T15:35:33.376Z,93488.08
2019-05-19T15:38:02.070Z,93486.92
2019-05-19T15:40:30.756Z,93494.17
2019-05-19T15:42:59.449Z,93475.73
2019-05-19T15:45:28.137Z,93477.28
2019-05-19T15:47:56.827Z,93473.22
2019-05-19T15:50:25.518Z,93473.44
2019-05-19T15:52:54.184Z,93473.41
2019-05-19T15:55:22.901Z,93459.32
2019-05-19T15:57:51.575Z,93468.82
2019-05-19T16:00:22.425Z,93460.67
2019-05-19T16:02:51.203Z,93460.52
2019-05-19T16:05:19.875Z,93467.32
2019-05-19T16:07:48.561Z,93460.83
2019-05-19T16:10:17.724Z,93457.20
2019-05-19T16:12:46.401Z,93458.72
2019-05-19T16:15:15.455Z,93451.38
2019-05-19T16:17:44.159Z,93445.52
2019-05-19T16:20:13.476Z,93450.18
2019-05-19T16:22:42.142Z,93446.16
2019-05-19T16:25:11.427Z,93448.31
2019-05-19T16:27:40.199Z,93439.67
2019-05-19T16:30:09.581Z,93434.77
2019-05-19T16:32:38.242Z,93440.95
2019-05-19T16:35:08.167Z,93439.80
2019-05-19T16:37:36.835Z,93441.56
2019-05-19T16:40:07.023Z,93439.84
2019-05-19T16:42:35.707Z,93438.66
2019-05-19T16:45:06.784Z,93443.77
2019-05-19T16:47:35.470Z,93441.02
2019-05-19T16:50:05.899Z,93447.45
2019-05-19T16:52:34.613Z,93447.80
2019-05-19T16:55:07.809Z,93441.78
2019-05-19T16:57:39.756Z,93437.56
2019-05-19T17:00:08.806Z,93435.38
2019-05-19T17:02:37.529Z,93432.59
2019-05-19T17:05:07.332Z,93438.83
2019-05-19T17:07:36.019Z,93436.39
2019-05-19T17:10:09.413Z,93434.38
2019-05-19T17:12:39.627Z,93429.31
2019-05-19T17:15:09.197Z,93434.58
2019-05-19T17:17:37.931Z,93428.81
2019-05-19T17:20:08.726Z,93419.75
2019-05-19T17:22:37.401Z,93429.98
2019-05-19T17:25:07.610Z,93428.52
2019-05-19T17:27:36.285Z,93425.41
2019-05-19T17:30:07.831Z,93426.31
2019-05-19T17:32:36.519Z,93423.52
2019-05-19T17:35:07.452Z,93426.59
2019-05-19T17:37:36.226Z,93422.48
2019-05-19T17:40:08.042Z,93414.69
2019-05-19T17:42:37.432Z,93408.39
2019-05-19T17:45:07.795Z,93409.60
2019-05-19T17:47:36.566Z,93404.52
2019-05-19T17:50:06.427Z,93409.58
2019-05-19T17:52:35.202Z,93403.17
2019-05-19T17:55:04.985Z,93402.89
2019-05-19T17:57:34.472Z,93401.63
2019-05-19T18:00:03.931Z,93398.97
2019-05-19T18:02:32.599Z,93405.66
2019-05-19T18:05:01.290Z,93411.19
2019-05-19T18:07:31.175Z,93399.67
2019-05-19T18:09:59.851Z,93397.26
2019-05-19T18:12:28.521Z,93403.23
2019-05-19T18:14:57.224Z,93409.19
2019-05-19T18:17:25.900Z,93412.16
2019-05-19T18:19:54.622Z,93416.65
2019-05-19T18:22:23.311Z,93413.66
2019-05-19T18:24:51.987Z,93413.32
2019-05-19T18:27:20.678Z,93408.37
2019-05-19T18:29:49.408Z,93408.79
2019-05-19T18:32:18.066Z,93406.80
2019-05-19T18:34:46.745Z,93409.63
2019-05-19T18:37:15.422Z,93416.20
2019-05-19T18:39:44.105Z,93411.77
2019-05-19T18:42:12.789Z,93407.92
2019-05-19T18:44:41.477Z,93417.42
2019-05-19T18:47:10.193Z,93418.17
2019-05-19T18:49:39.202Z,93414.27
2019-05-19T18:52:07.883Z,93413.33
2019-05-19T18:54:38.006Z,93417.73
2019-05-19T18:57:06.682Z,93422.86
2019-05-19T18:59:46.886Z,93420.67
2019-05-19T19:02:06.799Z,93420.27
2019-05-19T19:04:35.468Z,93423.89
2019-05-19T19:07:04.152Z,93440.04
2019-05-19T19:09:32.812Z,93434.50
2019-05-19T19:12:01.517Z,93434.50
2019-05-19T19:14:31.039Z,93444.37
2019-05-19T19:16:59.726Z,93442.99
2019-05-19T19:19:28.410Z,93446.86
2019-05-19T19:21:57.081Z,93449.11
2019-05-19T19:24:25.759Z,93459.42
2019-05-19T19:26:54.446Z,93467.03
2019-05-19T19:29:23.108Z,93458.37
2019-05-19T19:31:51.803Z,93469.33
2019-05-19T19:34:20.472Z,93469.33
2019-05-19T19:36:49.136Z,93468.06
2019-05-19T19:39:17.802Z,93464.02
2019-05-19T19:41:46.470Z,93462.51
2019-05-19T19:44:15.157Z,93462.51
2019-05-19T19:46:43.824Z,93460.23
2019-05-19T19:49:12.520Z,93468.53
2019-05-19T19:51:41.192Z,93468.53
2019-05-19T19:54:09.879Z,93483.89
2019-05-19T19:56:38.565Z,93482.31
2019-05-19T19:59:07.252Z,93468.45
2019-05-19T20:01:35.980Z,93468.45
2019-05-19T20:04:04.677Z,93484.84
2019-05-19T20:06:33.366Z,93484.70
2019-05-19T20:45:58.622Z,93526.97
2019-05-19T20:48:27.311Z,93529.63
2019-05-19T20:50:55.965Z,93532.95
2019-05-19T20:53:24.661Z,93531.66
2019-05-19T20:55:53.368Z,93536.78
2019-05-19T20:58:22.058Z,93537.53
2019-05-19T21:00:51.913Z,93545.95
2019-05-19T21:03:20.801Z,93538.62
2019-05-19T21:05:49.463Z,93545.48
2019-05-19T21:08:18.143Z,93550.17
2019-05-19T21:10:46.806Z,93541.30
2019-05-19T21:13:15.497Z,93547.78
2019-05-19T21:15:44.174Z,93545.67
2019-05-19T21:18:12.833Z,93546.78
2019-05-19T21:20:41.496Z,93550.06
2019-05-19T21:23:10.517Z,93558.71
2019-05-19T21:25:42.195Z,93549.09
2019-05-19T21:28:10.892Z,93533.52
2019-05-19T21:30:39.585Z,93556.95
2019-05-19T21:33:08.249Z,93576.19
2019-05-19T21:35:36.931Z,93582.60
2019-05-19T21:38:05.623Z,93558.16
2019-05-19T21:40:34.316Z,93549.81
2019-05-19T21:43:02.992Z,93552.56
2019-05-19T21:45:31.676Z,93561.17
2019-05-19T21:48:00.381Z,93566.40
2019-05-19T21:50:29.150Z,93539.53
2019-05-19T21:52:57.843Z,93526.81
2019-05-19T21:55:26.588Z,93539.17
2019-05-19T21:57:55.266Z,93537.34
2019-05-19T22:00:25.705Z,93531.75
2019-05-19T22:02:54.384Z,93516.27
2019-05-19T22:05:23.162Z,93545.69
2019-05-19T22:08:06.219Z,93544.77
2019-05-19T22:10:35.012Z,93552.00
2019-05-19T22:13:03.773Z,93511.69
2019-05-19T22:15:32.440Z,93535.94
2019-05-19T22:18:01.148Z,93562.16
2019-05-19T22:20:29.826Z,93547.25
2019-05-19T22:22:58.484Z,93546.41
2019-05-19T22:25:27.168Z,93558.97
2019-05-19T22:27:55.837Z,93549.26
2019-05-19T22:30:25.418Z,93541.11
2019-05-19T22:32:54.095Z,93550.27
2019-05-19T22:35:22.788Z,93542.12
2019-05-19T22:37:51.470Z,93557.86
2019-05-19T22:40:20.155Z,93555.86
2019-05-19T22:42:48.817Z,93524.25
2019-05-19T22:45:18.194Z,93544.30
2019-05-19T22:47:46.876Z,93557.41
2019-05-19T22:50:15.808Z,93548.17
2019-05-19T22:52:44.491Z,93564.27
2019-05-19T22:55:13.372Z,93582.43
2019-05-19T22:57:42.042Z,93541.47
2019-05-19T23:00:13.029Z,93538.36
2019-05-19T23:02:41.725Z,93569.61
2019-05-19T23:05:10.627Z,93560.91
2019-05-19T23:07:40.937Z,93536.42
2019-05-19T23:10:10.080Z,93543.95
2019-05-19T23:12:38.837Z,93559.53
2019-05-19T23:15:08.309Z,93544.67
2019-05-19T23:17:36.972Z,93546.25
2019-05-19T23:20:06.452Z,93557.23
2019-05-19T23:22:35.143Z,93549.09
2019-05-19T23:25:05.006Z,93552.30
2019-05-19T23:27:33.793Z,93551.09
2019-05-19T23:30:02.495Z,93556.12
2019-05-19T23:32:31.172Z,93571.23
2019-05-19T23:34:59.837Z,93563.38
2019-05-19T23:37:28.524Z,93568.39
2019-05-19T23:39:57.186Z,93572.86
2019-05-19T23:42:25.974Z,93565.58
2019-05-19T23:44:54.635Z,93565.40
2019-05-19T23:47:23.303Z,93561.16
2019-05-19T23:49:51.977Z,93565.72
2019-05-19T23:52:20.651Z,93573.41
2019-05-19T23:54:49.324Z,93574.52
2019-05-19T23:57:18.090Z,93585.86
2019-05-19T23:59:46.777Z,93576.34
